sensor_id;sensor_type;location;lat;lon;timestamp;P1;durP1;ratioP1;P2;durP2;ratioP2
69594;SDS011;56800;52.142;5.364;2022-08-03T00:01:15;6.63;;;2.17;;
69594;SDS011;56800;52.142;5.364;2022-08-03T00:03:43;12.23;;;2.55;;
69594;SDS011;56800;52.142;5.364;2022-08-03T00:06:25;9.97;;;1.90;;
69594;SDS011;56800;52.142;5.364;2022-08-03T00:09:01;11.25;;;2.10;;
69594;SDS011;56800;52.142;5.364;2022-08-03T00:11:43;10.13;;;2.03;;
69594;SDS011;56800;52.142;5.364;2022-08-03T00:14:11;5.80;;;1.73;;
69594;SDS011;56800;52.142;5.364;2022-08-03T00:16:38;6.05;;;2.05;;
69594;SDS011;56800;52.142;5.364;2022-08-03T00:19:05;13.03;;;2.00;;
69594;SDS011;56800;52.142;5.364;2022-08-03T00:21:32;10.98;;;2.35;;
69594;SDS011;56800;52.142;5.364;2022-08-03T00:23:59;10.25;;;2.10;;
69594;SDS011;56800;52.142;5.364;2022-08-03T00:26:26;7.97;;;2.08;;
69594;SDS011;56800;52.142;5.364;2022-08-03T00:28:53;6.95;;;2.38;;
69594;SDS011;56800;52.142;5.364;2022-08-03T00:31:19;5.40;;;1.80;;
69594;SDS011;56800;52.142;5.364;2022-08-03T00:34:05;6.25;;;2.30;;
69594;SDS011;56800;52.142;5.364;2022-08-03T00:36:32;9.15;;;2.13;;
69594;SDS011;56800;52.142;5.364;2022-08-03T00:39:02;13.82;;;2.35;;
69594;SDS011;56800;52.142;5.364;2022-08-03T00:41:29;7.97;;;1.80;;
69594;SDS011;56800;52.142;5.364;2022-08-03T00:43:58;6.37;;;1.90;;
69594;SDS011;56800;52.142;5.364;2022-08-03T00:46:25;8.32;;;1.98;;
69594;SDS011;56800;52.142;5.364;2022-08-03T00:48:52;9.82;;;2.20;;
69594;SDS011;56800;52.142;5.364;2022-08-03T00:51:19;10.75;;;2.45;;
69594;SDS011;56800;52.142;5.364;2022-08-03T00:53:47;12.32;;;2.53;;
69594;SDS011;56800;52.142;5.364;2022-08-03T00:56:15;7.17;;;1.90;;
69594;SDS011;56800;52.142;5.364;2022-08-03T00:58:45;7.03;;;2.10;;
69594;SDS011;56800;52.142;5.364;2022-08-03T01:01:12;8.50;;;2.40;;
69594;SDS011;56800;52.142;5.364;2022-08-03T01:03:40;7.25;;;2.30;;
69594;SDS011;56800;52.142;5.364;2022-08-03T01:06:16;7.63;;;1.67;;
69594;SDS011;56800;52.142;5.364;2022-08-03T01:09:06;11.97;;;2.37;;
69594;SDS011;56800;52.142;5.364;2022-08-03T01:11:55;9.65;;;2.70;;
69594;SDS011;56800;52.142;5.364;2022-08-03T01:14:37;7.63;;;2.25;;
69594;SDS011;56800;52.142;5.364;2022-08-03T01:18:08;8.98;;;2.25;;
69594;SDS011;56800;52.142;5.364;2022-08-03T01:20:23;9.18;;;2.20;;
69594;SDS011;56800;52.142;5.364;2022-08-03T01:32:20;8.75;;;2.38;;
69594;SDS011;56800;52.142;5.364;2022-08-03T01:35:21;8.98;;;2.65;;
69594;SDS011;56800;52.142;5.364;2022-08-03T01:37:55;12.80;;;2.67;;
69594;SDS011;56800;52.142;5.364;2022-08-03T01:40:26;8.43;;;2.30;;
69594;SDS011;56800;52.142;5.364;2022-08-03T01:42:54;8.93;;;2.72;;
69594;SDS011;56800;52.142;5.364;2022-08-03T01:45:24;9.10;;;2.85;;
69594;SDS011;56800;52.142;5.364;2022-08-03T01:47:59;11.10;;;2.70;;
69594;SDS011;56800;52.142;5.364;2022-08-03T01:50:27;9.40;;;2.37;;
69594;SDS011;56800;52.142;5.364;2022-08-03T01:52:55;9.52;;;2.70;;
69594;SDS011;56800;52.142;5.364;2022-08-03T01:55:24;12.35;;;2.60;;
69594;SDS011;56800;52.142;5.364;2022-08-03T01:57:54;12.85;;;2.78;;
69594;SDS011;56800;52.142;5.364;2022-08-03T02:00:31;10.55;;;2.88;;
69594;SDS011;56800;52.142;5.364;2022-08-03T02:03:04;11.43;;;2.80;;
69594;SDS011;56800;52.142;5.364;2022-08-03T02:05:32;13.18;;;3.25;;
69594;SDS011;56800;52.142;5.364;2022-08-03T02:08:00;14.52;;;3.05;;
69594;SDS011;56800;52.142;5.364;2022-08-03T02:10:36;13.18;;;3.05;;
69594;SDS011;56800;52.142;5.364;2022-08-03T02:13:21;8.27;;;2.78;;
69594;SDS011;56800;52.142;5.364;2022-08-03T02:15:58;13.33;;;3.00;;
69594;SDS011;56800;52.142;5.364;2022-08-03T02:18:27;12.13;;;3.20;;
69594;SDS011;56800;52.142;5.364;2022-08-03T02:20:55;11.30;;;3.10;;
69594;SDS011;56800;52.142;5.364;2022-08-03T02:23:23;11.27;;;3.30;;
69594;SDS011;56800;52.142;5.364;2022-08-03T02:25:51;11.32;;;3.20;;
69594;SDS011;56800;52.142;5.364;2022-08-03T02:28:35;9.53;;;3.00;;
69594;SDS011;56800;52.142;5.364;2022-08-03T02:31:06;7.47;;;2.85;;
69594;SDS011;56800;52.142;5.364;2022-08-03T02:33:42;11.23;;;2.70;;
69594;SDS011;56800;52.142;5.364;2022-08-03T02:36:24;10.88;;;3.38;;
69594;SDS011;56800;52.142;5.364;2022-08-03T02:39:09;12.52;;;2.75;;
69594;SDS011;56800;52.142;5.364;2022-08-03T02:41:44;13.33;;;3.03;;
69594;SDS011;56800;52.142;5.364;2022-08-03T02:44:34;14.05;;;3.20;;
69594;SDS011;56800;52.142;5.364;2022-08-03T02:47:04;14.07;;;3.47;;
69594;SDS011;56800;52.142;5.364;2022-08-03T02:49:35;13.35;;;2.90;;
69594;SDS011;56800;52.142;5.364;2022-08-03T02:52:17;9.65;;;2.65;;
69594;SDS011;56800;52.142;5.364;2022-08-03T02:54:50;12.93;;;3.20;;
69594;SDS011;56800;52.142;5.364;2022-08-03T02:57:19;12.15;;;2.78;;
69594;SDS011;56800;52.142;5.364;2022-08-03T02:59:50;11.02;;;3.20;;
69594;SDS011;56800;52.142;5.364;2022-08-03T03:02:18;15.07;;;3.33;;
69594;SDS011;56800;52.142;5.364;2022-08-03T03:04:46;12.25;;;3.10;;
69594;SDS011;56800;52.142;5.364;2022-08-03T03:07:36;13.27;;;3.20;;
69594;SDS011;56800;52.142;5.364;2022-08-03T03:10:21;12.90;;;3.10;;
69594;SDS011;56800;52.142;5.364;2022-08-03T03:12:50;9.63;;;3.55;;
69594;SDS011;56800;52.142;5.364;2022-08-03T03:15:21;19.98;;;3.75;;
69594;SDS011;56800;52.142;5.364;2022-08-03T03:17:51;12.88;;;2.80;;
69594;SDS011;56800;52.142;5.364;2022-08-03T03:20:19;13.07;;;3.27;;
69594;SDS011;56800;52.142;5.364;2022-08-03T03:22:55;16.27;;;3.33;;
69594;SDS011;56800;52.142;5.364;2022-08-03T03:25:23;12.55;;;3.15;;
69594;SDS011;56800;52.142;5.364;2022-08-03T03:27:55;12.00;;;2.67;;
69594;SDS011;56800;52.142;5.364;2022-08-03T03:30:36;15.65;;;3.13;;
69594;SDS011;56800;52.142;5.364;2022-08-03T03:33:06;13.03;;;3.17;;
69594;SDS011;56800;52.142;5.364;2022-08-03T03:35:35;11.82;;;3.35;;
69594;SDS011;56800;52.142;5.364;2022-08-03T03:38:07;10.00;;;3.28;;
69594;SDS011;56800;52.142;5.364;2022-08-03T03:40:36;10.93;;;3.13;;
69594;SDS011;56800;52.142;5.364;2022-08-03T03:43:07;10.75;;;3.88;;
69594;SDS011;56800;52.142;5.364;2022-08-03T03:45:35;13.07;;;3.23;;
69594;SDS011;56800;52.142;5.364;2022-08-03T03:48:02;10.65;;;3.22;;
69594;SDS011;56800;52.142;5.364;2022-08-03T03:50:31;11.98;;;3.67;;
69594;SDS011;56800;52.142;5.364;2022-08-03T03:52:58;9.82;;;3.58;;
69594;SDS011;56800;52.142;5.364;2022-08-03T03:55:26;13.57;;;3.53;;
69594;SDS011;56800;52.142;5.364;2022-08-03T03:57:53;12.73;;;3.53;;
69594;SDS011;56800;52.142;5.364;2022-08-03T04:00:20;9.93;;;3.78;;
69594;SDS011;56800;52.142;5.364;2022-08-03T04:02:47;14.80;;;3.58;;
69594;SDS011;56800;52.142;5.364;2022-08-03T04:05:13;14.90;;;3.60;;
69594;SDS011;56800;52.142;5.364;2022-08-03T04:08:03;12.25;;;3.70;;
69594;SDS011;56800;52.142;5.364;2022-08-03T04:14:02;8.75;;;3.15;;
69594;SDS011;56800;52.142;5.364;2022-08-03T04:16:39;12.93;;;4.30;;
69594;SDS011;56800;52.142;5.364;2022-08-03T04:19:46;15.07;;;3.53;;
69594;SDS011;56800;52.142;5.364;2022-08-03T04:22:19;14.82;;;3.60;;
69594;SDS011;56800;52.142;5.364;2022-08-03T04:25:04;16.70;;;3.13;;
69594;SDS011;56800;52.142;5.364;2022-08-03T04:27:35;13.27;;;3.13;;
69594;SDS011;56800;52.142;5.364;2022-08-03T04:30:04;15.05;;;3.92;;
69594;SDS011;56800;52.142;5.364;2022-08-03T04:32:32;13.38;;;3.55;;
69594;SDS011;56800;52.142;5.364;2022-08-03T04:35:02;12.95;;;3.30;;
69594;SDS011;56800;52.142;5.364;2022-08-03T04:37:42;11.13;;;3.17;;
69594;SDS011;56800;52.142;5.364;2022-08-03T04:40:15;12.30;;;3.10;;
69594;SDS011;56800;52.142;5.364;2022-08-03T04:42:58;11.50;;;2.92;;
69594;SDS011;56800;52.142;5.364;2022-08-03T04:45:29;16.50;;;3.75;;
69594;SDS011;56800;52.142;5.364;2022-08-03T04:47:56;14.82;;;3.70;;
69594;SDS011;56800;52.142;5.364;2022-08-03T04:50:27;12.57;;;3.53;;
69594;SDS011;56800;52.142;5.364;2022-08-03T04:52:55;12.93;;;3.08;;
69594;SDS011;56800;52.142;5.364;2022-08-03T04:55:25;12.27;;;3.50;;
69594;SDS011;56800;52.142;5.364;2022-08-03T04:57:56;16.65;;;4.28;;
69594;SDS011;56800;52.142;5.364;2022-08-03T05:00:24;11.93;;;3.03;;
69594;SDS011;56800;52.142;5.364;2022-08-03T05:02:51;16.37;;;4.20;;
69594;SDS011;56800;52.142;5.364;2022-08-03T05:05:28;17.60;;;4.10;;
69594;SDS011;56800;52.142;5.364;2022-08-03T05:08:16;13.27;;;3.92;;
69594;SDS011;56800;52.142;5.364;2022-08-03T05:11:00;13.32;;;4.05;;
69594;SDS011;56800;52.142;5.364;2022-08-03T05:13:43;15.93;;;4.18;;
69594;SDS011;56800;52.142;5.364;2022-08-03T05:16:24;13.47;;;3.73;;
69594;SDS011;56800;52.142;5.364;2022-08-03T05:18:53;12.63;;;3.92;;
69594;SDS011;56800;52.142;5.364;2022-08-03T05:21:19;14.85;;;4.05;;
69594;SDS011;56800;52.142;5.364;2022-08-03T05:23:46;14.13;;;3.53;;
69594;SDS011;56800;52.142;5.364;2022-08-03T05:26:13;15.20;;;3.80;;
69594;SDS011;56800;52.142;5.364;2022-08-03T05:28:39;14.20;;;3.97;;
69594;SDS011;56800;52.142;5.364;2022-08-03T05:31:16;19.38;;;4.35;;
69594;SDS011;56800;52.142;5.364;2022-08-03T05:33:43;13.77;;;4.18;;
69594;SDS011;56800;52.142;5.364;2022-08-03T05:36:10;15.95;;;4.10;;
69594;SDS011;56800;52.142;5.364;2022-08-03T05:38:37;16.30;;;4.15;;
69594;SDS011;56800;52.142;5.364;2022-08-03T05:41:04;14.07;;;3.77;;
69594;SDS011;56800;52.142;5.364;2022-08-03T05:43:49;12.15;;;3.58;;
69594;SDS011;56800;52.142;5.364;2022-08-03T05:46:17;23.27;;;5.03;;
69594;SDS011;56800;52.142;5.364;2022-08-03T05:48:45;15.38;;;4.30;;
69594;SDS011;56800;52.142;5.364;2022-08-03T05:51:15;15.25;;;4.00;;
69594;SDS011;56800;52.142;5.364;2022-08-03T05:53:41;17.67;;;3.80;;
69594;SDS011;56800;52.142;5.364;2022-08-03T05:56:09;16.00;;;4.15;;
69594;SDS011;56800;52.142;5.364;2022-08-03T05:58:41;14.93;;;4.38;;
69594;SDS011;56800;52.142;5.364;2022-08-03T06:01:08;21.15;;;3.97;;
69594;SDS011;56800;52.142;5.364;2022-08-03T06:03:35;13.23;;;4.00;;
69594;SDS011;56800;52.142;5.364;2022-08-03T06:06:02;16.27;;;3.87;;
69594;SDS011;56800;52.142;5.364;2022-08-03T06:08:28;18.88;;;4.10;;
69594;SDS011;56800;52.142;5.364;2022-08-03T06:10:55;13.60;;;4.28;;
69594;SDS011;56800;52.142;5.364;2022-08-03T06:13:22;21.00;;;4.57;;
69594;SDS011;56800;52.142;5.364;2022-08-03T06:15:48;17.02;;;4.20;;
69594;SDS011;56800;52.142;5.364;2022-08-03T06:18:15;11.30;;;3.63;;
69594;SDS011;56800;52.142;5.364;2022-08-03T06:20:42;16.63;;;4.20;;
69594;SDS011;56800;52.142;5.364;2022-08-03T06:23:09;22.73;;;3.80;;
69594;SDS011;56800;52.142;5.364;2022-08-03T06:25:41;12.73;;;3.55;;
69594;SDS011;56800;52.142;5.364;2022-08-03T06:28:08;16.65;;;4.45;;
69594;SDS011;56800;52.142;5.364;2022-08-03T06:30:54;15.83;;;4.13;;
69594;SDS011;56800;52.142;5.364;2022-08-03T06:33:22;17.35;;;3.58;;
69594;SDS011;56800;52.142;5.364;2022-08-03T06:36:11;14.82;;;4.13;;
69594;SDS011;56800;52.142;5.364;2022-08-03T06:38:38;15.90;;;4.30;;
69594;SDS011;56800;52.142;5.364;2022-08-03T06:41:04;17.25;;;3.72;;
69594;SDS011;56800;52.142;5.364;2022-08-03T06:43:31;18.43;;;4.17;;
69594;SDS011;56800;52.142;5.364;2022-08-03T06:46:01;17.08;;;4.40;;
69594;SDS011;56800;52.142;5.364;2022-08-03T06:48:28;16.20;;;3.78;;
69594;SDS011;56800;52.142;5.364;2022-08-03T06:50:55;20.63;;;4.50;;
69594;SDS011;56800;52.142;5.364;2022-08-03T06:53:22;16.92;;;3.83;;
69594;SDS011;56800;52.142;5.364;2022-08-03T06:55:48;13.93;;;3.53;;
69594;SDS011;56800;52.142;5.364;2022-08-03T06:58:19;20.35;;;3.75;;
69594;SDS011;56800;52.142;5.364;2022-08-03T07:00:46;17.90;;;3.97;;
69594;SDS011;56800;52.142;5.364;2022-08-03T07:03:13;19.27;;;4.20;;
69594;SDS011;56800;52.142;5.364;2022-08-03T07:05:40;13.90;;;4.25;;
69594;SDS011;56800;52.142;5.364;2022-08-03T07:08:08;19.27;;;4.33;;
69594;SDS011;56800;52.142;5.364;2022-08-03T07:10:36;19.38;;;4.03;;
69594;SDS011;56800;52.142;5.364;2022-08-03T07:13:03;20.38;;;4.47;;
69594;SDS011;56800;52.142;5.364;2022-08-03T07:15:30;14.40;;;4.20;;
69594;SDS011;56800;52.142;5.364;2022-08-03T07:18:17;19.05;;;4.15;;
69594;SDS011;56800;52.142;5.364;2022-08-03T07:20:55;21.87;;;4.00;;
69594;SDS011;56800;52.142;5.364;2022-08-03T07:23:22;20.27;;;4.25;;
69594;SDS011;56800;52.142;5.364;2022-08-03T07:25:49;16.23;;;4.00;;
69594;SDS011;56800;52.142;5.364;2022-08-03T07:28:16;17.35;;;3.75;;
69594;SDS011;56800;52.142;5.364;2022-08-03T07:30:42;19.42;;;4.88;;
69594;SDS011;56800;52.142;5.364;2022-08-03T07:33:09;25.40;;;4.20;;
69594;SDS011;56800;52.142;5.364;2022-08-03T07:35:36;15.80;;;4.32;;
69594;SDS011;56800;52.142;5.364;2022-08-03T07:38:02;14.00;;;4.43;;
69594;SDS011;56800;52.142;5.364;2022-08-03T07:40:29;17.65;;;4.10;;
69594;SDS011;56800;52.142;5.364;2022-08-03T07:42:57;23.17;;;4.10;;
69594;SDS011;56800;52.142;5.364;2022-08-03T07:45:24;14.60;;;3.53;;
69594;SDS011;56800;52.142;5.364;2022-08-03T07:47:51;16.40;;;3.83;;
69594;SDS011;56800;52.142;5.364;2022-08-03T07:50:19;16.38;;;4.00;;
69594;SDS011;56800;52.142;5.364;2022-08-03T07:52:47;24.73;;;4.55;;
69594;SDS011;56800;52.142;5.364;2022-08-03T07:55:15;16.25;;;3.90;;
69594;SDS011;56800;52.142;5.364;2022-08-03T07:57:43;19.97;;;4.37;;
69594;SDS011;56800;52.142;5.364;2022-08-03T08:00:16;14.40;;;3.88;;
69594;SDS011;56800;52.142;5.364;2022-08-03T08:02:44;22.60;;;4.65;;
69594;SDS011;56800;52.142;5.364;2022-08-03T08:05:11;17.75;;;3.65;;
69594;SDS011;56800;52.142;5.364;2022-08-03T08:07:38;18.27;;;4.07;;
69594;SDS011;56800;52.142;5.364;2022-08-03T08:10:06;20.87;;;3.63;;
69594;SDS011;56800;52.142;5.364;2022-08-03T08:12:35;19.23;;;3.83;;
69594;SDS011;56800;52.142;5.364;2022-08-03T08:15:03;19.98;;;3.90;;
69594;SDS011;56800;52.142;5.364;2022-08-03T08:17:39;15.40;;;3.33;;
69594;SDS011;56800;52.142;5.364;2022-08-03T08:20:11;16.27;;;3.97;;
69594;SDS011;56800;52.142;5.364;2022-08-03T08:22:54;19.77;;;4.00;;
69594;SDS011;56800;52.142;5.364;2022-08-03T08:25:23;16.40;;;4.15;;
69594;SDS011;56800;52.142;5.364;2022-08-03T08:27:50;12.02;;;3.90;;
69594;SDS011;56800;52.142;5.364;2022-08-03T08:30:37;18.67;;;4.50;;
69594;SDS011;56800;52.142;5.364;2022-08-03T08:33:04;18.83;;;4.18;;
69594;SDS011;56800;52.142;5.364;2022-08-03T08:35:30;20.27;;;3.63;;
69594;SDS011;56800;52.142;5.364;2022-08-03T08:37:58;16.70;;;3.88;;
69594;SDS011;56800;52.142;5.364;2022-08-03T08:40:31;21.27;;;4.32;;
69594;SDS011;56800;52.142;5.364;2022-08-03T08:42:57;20.00;;;4.53;;
69594;SDS011;56800;52.142;5.364;2022-08-03T08:45:25;20.20;;;4.10;;
69594;SDS011;56800;52.142;5.364;2022-08-03T08:47:52;20.70;;;4.20;;
69594;SDS011;56800;52.142;5.364;2022-08-03T08:50:26;17.60;;;3.83;;
69594;SDS011;56800;52.142;5.364;2022-08-03T08:52:54;18.33;;;4.40;;
69594;SDS011;56800;52.142;5.364;2022-08-03T08:55:25;19.67;;;4.35;;
69594;SDS011;56800;52.142;5.364;2022-08-03T08:57:54;16.33;;;4.30;;
69594;SDS011;56800;52.142;5.364;2022-08-03T09:00:24;18.37;;;4.03;;
69594;SDS011;56800;52.142;5.364;2022-08-03T09:02:51;26.33;;;3.85;;
69594;SDS011;56800;52.142;5.364;2022-08-03T09:05:18;21.08;;;4.63;;
69594;SDS011;56800;52.142;5.364;2022-08-03T09:08:05;24.50;;;4.15;;
69594;SDS011;56800;52.142;5.364;2022-08-03T09:10:32;14.88;;;4.13;;
69594;SDS011;56800;52.142;5.364;2022-08-03T09:12:59;20.27;;;4.60;;
69594;SDS011;56800;52.142;5.364;2022-08-03T09:15:28;19.73;;;4.78;;
69594;SDS011;56800;52.142;5.364;2022-08-03T09:17:57;22.65;;;4.20;;
69594;SDS011;56800;52.142;5.364;2022-08-03T09:20:29;23.65;;;4.95;;
69594;SDS011;56800;52.142;5.364;2022-08-03T09:25:30;19.63;;;4.73;;
69594;SDS011;56800;52.142;5.364;2022-08-03T09:30:41;24.50;;;4.47;;
69594;SDS011;56800;52.142;5.364;2022-08-03T09:33:10;15.68;;;4.30;;
69594;SDS011;56800;52.142;5.364;2022-08-03T09:35:39;21.67;;;4.43;;
69594;SDS011;56800;52.142;5.364;2022-08-03T09:38:21;23.70;;;4.40;;
69594;SDS011;56800;52.142;5.364;2022-08-03T09:40:49;23.13;;;4.07;;
69594;SDS011;56800;52.142;5.364;2022-08-03T09:43:18;23.48;;;4.28;;
69594;SDS011;56800;52.142;5.364;2022-08-03T09:45:45;22.75;;;4.05;;
69594;SDS011;56800;52.142;5.364;2022-08-03T09:48:25;21.17;;;4.35;;
69594;SDS011;56800;52.142;5.364;2022-08-03T09:50:57;15.90;;;3.90;;
69594;SDS011;56800;52.142;5.364;2022-08-03T09:53:45;19.73;;;3.90;;
69594;SDS011;56800;52.142;5.364;2022-08-03T09:56:49;18.48;;;4.50;;
69594;SDS011;56800;52.142;5.364;2022-08-03T09:59:13;17.40;;;4.03;;
69594;SDS011;56800;52.142;5.364;2022-08-03T10:01:51;15.00;;;4.30;;
69594;SDS011;56800;52.142;5.364;2022-08-03T10:04:18;20.40;;;4.77;;
69594;SDS011;56800;52.142;5.364;2022-08-03T10:06:45;17.88;;;3.78;;
69594;SDS011;56800;52.142;5.364;2022-08-03T10:09:34;14.55;;;4.10;;
69594;SDS011;56800;52.142;5.364;2022-08-03T10:12:08;18.75;;;4.07;;
69594;SDS011;56800;52.142;5.364;2022-08-03T10:14:37;23.90;;;4.55;;
69594;SDS011;56800;52.142;5.364;2022-08-03T10:17:04;21.67;;;4.13;;
69594;SDS011;56800;52.142;5.364;2022-08-03T10:19:31;17.13;;;4.10;;
69594;SDS011;56800;52.142;5.364;2022-08-03T10:22:06;16.38;;;4.05;;
69594;SDS011;56800;52.142;5.364;2022-08-03T10:24:38;21.50;;;4.50;;
69594;SDS011;56800;52.142;5.364;2022-08-03T10:27:07;17.80;;;4.57;;
69594;SDS011;56800;52.142;5.364;2022-08-03T10:29:37;19.63;;;4.17;;
69594;SDS011;56800;52.142;5.364;2022-08-03T10:35:12;19.30;;;4.28;;
69594;SDS011;56800;52.142;5.364;2022-08-03T10:37:49;21.30;;;4.40;;
69594;SDS011;56800;52.142;5.364;2022-08-03T10:40:25;17.58;;;4.32;;
69594;SDS011;56800;52.142;5.364;2022-08-03T10:43:17;14.80;;;3.97;;
69594;SDS011;56800;52.142;5.364;2022-08-03T10:45:46;14.15;;;4.47;;
69594;SDS011;56800;52.142;5.364;2022-08-03T10:48:14;18.90;;;3.97;;
69594;SDS011;56800;52.142;5.364;2022-08-03T10:50:41;15.73;;;4.35;;
69594;SDS011;56800;52.142;5.364;2022-08-03T10:53:09;12.93;;;3.80;;
69594;SDS011;56800;52.142;5.364;2022-08-03T10:55:43;12.73;;;3.23;;
69594;SDS011;56800;52.142;5.364;2022-08-03T11:04:26;15.40;;;3.97;;
69594;SDS011;56800;52.142;5.364;2022-08-03T11:09:46;19.60;;;3.83;;
69594;SDS011;56800;52.142;5.364;2022-08-03T11:12:28;19.30;;;3.97;;
69594;SDS011;56800;52.142;5.364;2022-08-03T11:15:02;16.02;;;3.50;;
69594;SDS011;56800;52.142;5.364;2022-08-03T11:17:32;17.08;;;3.97;;
69594;SDS011;56800;52.142;5.364;2022-08-03T11:20:42;14.30;;;3.80;;
69594;SDS011;56800;52.142;5.364;2022-08-03T11:23:20;14.57;;;3.70;;
69594;SDS011;56800;52.142;5.364;2022-08-03T11:26:31;14.80;;;3.92;;
69594;SDS011;56800;52.142;5.364;2022-08-03T11:31:56;14.43;;;3.75;;
69594;SDS011;56800;52.142;5.364;2022-08-03T11:34:23;14.98;;;4.10;;
69594;SDS011;56800;52.142;5.364;2022-08-03T11:39:48;13.93;;;3.13;;
69594;SDS011;56800;52.142;5.364;2022-08-03T11:45:18;15.10;;;3.17;;
69594;SDS011;56800;52.142;5.364;2022-08-03T11:47:44;16.05;;;4.50;;
69594;SDS011;56800;52.142;5.364;2022-08-03T11:50:16;16.27;;;4.40;;
69594;SDS011;56800;52.142;5.364;2022-08-03T11:52:44;14.45;;;4.00;;
69594;SDS011;56800;52.142;5.364;2022-08-03T11:55:12;15.40;;;4.07;;
69594;SDS011;56800;52.142;5.364;2022-08-03T11:57:41;19.77;;;4.07;;
69594;SDS011;56800;52.142;5.364;2022-08-03T12:00:29;13.88;;;3.75;;
69594;SDS011;56800;52.142;5.364;2022-08-03T12:02:58;11.97;;;3.43;;
69594;SDS011;56800;52.142;5.364;2022-08-03T12:05:38;11.07;;;3.35;;
69594;SDS011;56800;52.142;5.364;2022-08-03T12:08:17;20.38;;;3.88;;
69594;SDS011;56800;52.142;5.364;2022-08-03T12:10:53;11.15;;;3.60;;
69594;SDS011;56800;52.142;5.364;2022-08-03T12:13:21;14.23;;;3.65;;
69594;SDS011;56800;52.142;5.364;2022-08-03T12:16:09;10.90;;;2.77;;
69594;SDS011;56800;52.142;5.364;2022-08-03T12:18:36;12.32;;;3.80;;
69594;SDS011;56800;52.142;5.364;2022-08-03T12:21:09;12.07;;;3.50;;
69594;SDS011;56800;52.142;5.364;2022-08-03T12:23:37;12.43;;;4.28;;
69594;SDS011;56800;52.142;5.364;2022-08-03T12:26:06;12.73;;;3.70;;
69594;SDS011;56800;52.142;5.364;2022-08-03T12:28:34;12.87;;;4.47;;
69594;SDS011;56800;52.142;5.364;2022-08-03T12:31:07;18.23;;;3.92;;
69594;SDS011;56800;52.142;5.364;2022-08-03T12:36:29;11.38;;;2.90;;
69594;SDS011;56800;52.142;5.364;2022-08-03T12:38:58;10.90;;;3.40;;
69594;SDS011;56800;52.142;5.364;2022-08-03T12:41:27;8.83;;;3.80;;
69594;SDS011;56800;52.142;5.364;2022-08-03T12:43:55;10.90;;;3.33;;
69594;SDS011;56800;52.142;5.364;2022-08-03T12:46:27;10.98;;;4.20;;
69594;SDS011;56800;52.142;5.364;2022-08-03T12:49:06;9.52;;;3.60;;
69594;SDS011;56800;52.142;5.364;2022-08-03T12:51:37;10.45;;;3.63;;
69594;SDS011;56800;52.142;5.364;2022-08-03T12:54:32;12.63;;;3.73;;
69594;SDS011;56800;52.142;5.364;2022-08-03T12:59:42;11.05;;;4.15;;
69594;SDS011;56800;52.142;5.364;2022-08-03T13:02:21;10.75;;;4.65;;
69594;SDS011;56800;52.142;5.364;2022-08-03T13:04:50;8.77;;;3.72;;
69594;SDS011;56800;52.142;5.364;2022-08-03T13:07:18;8.30;;;3.60;;
69594;SDS011;56800;52.142;5.364;2022-08-03T13:09:54;13.13;;;4.35;;
69594;SDS011;56800;52.142;5.364;2022-08-03T13:12:22;11.48;;;3.75;;
69594;SDS011;56800;52.142;5.364;2022-08-03T13:14:51;10.30;;;4.20;;
69594;SDS011;56800;52.142;5.364;2022-08-03T13:17:20;12.93;;;4.10;;
69594;SDS011;56800;52.142;5.364;2022-08-03T13:19:47;8.70;;;3.83;;
69594;SDS011;56800;52.142;5.364;2022-08-03T13:22:19;11.30;;;3.80;;
69594;SDS011;56800;52.142;5.364;2022-08-03T13:24:47;8.70;;;4.40;;
69594;SDS011;56800;52.142;5.364;2022-08-03T13:27:15;12.73;;;4.43;;
69594;SDS011;56800;52.142;5.364;2022-08-03T13:30:02;13.38;;;5.20;;
69594;SDS011;56800;52.142;5.364;2022-08-03T13:32:29;9.57;;;3.97;;
69594;SDS011;56800;52.142;5.364;2022-08-03T13:34:56;9.63;;;4.25;;
69594;SDS011;56800;52.142;5.364;2022-08-03T13:37:23;9.63;;;4.35;;
69594;SDS011;56800;52.142;5.364;2022-08-03T13:39:51;9.10;;;4.38;;
69594;SDS011;56800;52.142;5.364;2022-08-03T13:42:26;9.23;;;3.75;;
69594;SDS011;56800;52.142;5.364;2022-08-03T13:44:54;15.20;;;4.20;;
69594;SDS011;56800;52.142;5.364;2022-08-03T13:47:21;7.50;;;3.78;;
69594;SDS011;56800;52.142;5.364;2022-08-03T13:49:48;14.90;;;3.67;;
69594;SDS011;56800;52.142;5.364;2022-08-03T13:52:27;11.77;;;4.47;;
69594;SDS011;56800;52.142;5.364;2022-08-03T13:55:03;9.57;;;4.05;;
69594;SDS011;56800;52.142;5.364;2022-08-03T13:57:31;7.43;;;3.80;;
69594;SDS011;56800;52.142;5.364;2022-08-03T14:00:18;8.60;;;3.40;;
69594;SDS011;56800;52.142;5.364;2022-08-03T14:02:54;8.13;;;3.88;;
69594;SDS011;56800;52.142;5.364;2022-08-03T14:05:39;10.32;;;4.47;;
69594;SDS011;56800;52.142;5.364;2022-08-03T14:08:07;11.18;;;4.45;;
69594;SDS011;56800;52.142;5.364;2022-08-03T14:10:35;10.37;;;4.30;;
69594;SDS011;56800;52.142;5.364;2022-08-03T14:13:03;6.63;;;3.63;;
69594;SDS011;56800;52.142;5.364;2022-08-03T14:15:30;7.80;;;3.83;;
69594;SDS011;56800;52.142;5.364;2022-08-03T14:18:02;8.93;;;3.47;;
69594;SDS011;56800;52.142;5.364;2022-08-03T14:20:30;7.22;;;3.50;;
69594;SDS011;56800;52.142;5.364;2022-08-03T14:23:14;6.03;;;3.00;;
69594;SDS011;56800;52.142;5.364;2022-08-03T14:25:41;12.30;;;3.30;;
69594;SDS011;56800;52.142;5.364;2022-08-03T14:28:17;12.43;;;3.83;;
69594;SDS011;56800;52.142;5.364;2022-08-03T14:30:52;8.60;;;3.08;;
69594;SDS011;56800;52.142;5.364;2022-08-03T14:33:20;7.05;;;3.33;;
69594;SDS011;56800;52.142;5.364;2022-08-03T14:35:48;11.80;;;3.90;;
69594;SDS011;56800;52.142;5.364;2022-08-03T14:38:16;12.05;;;3.75;;
69594;SDS011;56800;52.142;5.364;2022-08-03T14:40:43;8.60;;;3.60;;
69594;SDS011;56800;52.142;5.364;2022-08-03T14:43:10;7.70;;;4.20;;
69594;SDS011;56800;52.142;5.364;2022-08-03T14:45:37;7.78;;;3.03;;
69594;SDS011;56800;52.142;5.364;2022-08-03T14:48:04;9.67;;;3.53;;
69594;SDS011;56800;52.142;5.364;2022-08-03T14:50:51;6.90;;;3.47;;
69594;SDS011;56800;52.142;5.364;2022-08-03T14:53:20;10.70;;;4.10;;
69594;SDS011;56800;52.142;5.364;2022-08-03T14:55:47;8.75;;;3.60;;
69594;SDS011;56800;52.142;5.364;2022-08-03T14:58:17;11.32;;;4.18;;
69594;SDS011;56800;52.142;5.364;2022-08-03T15:00:46;5.57;;;4.13;;
69594;SDS011;56800;52.142;5.364;2022-08-03T15:03:14;8.77;;;3.80;;
69594;SDS011;56800;52.142;5.364;2022-08-03T15:05:42;7.70;;;4.05;;
69594;SDS011;56800;52.142;5.364;2022-08-03T15:08:09;10.45;;;3.67;;
69594;SDS011;56800;52.142;5.364;2022-08-03T15:10:35;9.23;;;3.50;;
69594;SDS011;56800;52.142;5.364;2022-08-03T15:13:10;7.40;;;2.90;;
69594;SDS011;56800;52.142;5.364;2022-08-03T15:15:38;6.38;;;3.00;;
69594;SDS011;56800;52.142;5.364;2022-08-03T15:18:05;10.30;;;3.70;;
69594;SDS011;56800;52.142;5.364;2022-08-03T15:20:32;10.82;;;3.70;;
69594;SDS011;56800;52.142;5.364;2022-08-03T15:23:09;9.25;;;3.85;;
69594;SDS011;56800;52.142;5.364;2022-08-03T15:25:36;5.50;;;2.53;;
69594;SDS011;56800;52.142;5.364;2022-08-03T15:28:23;8.75;;;2.95;;
69594;SDS011;56800;52.142;5.364;2022-08-03T15:30:53;7.57;;;2.97;;
69594;SDS011;56800;52.142;5.364;2022-08-03T15:33:20;9.52;;;3.97;;
69594;SDS011;56800;52.142;5.364;2022-08-03T15:35:46;9.05;;;3.28;;
69594;SDS011;56800;52.142;5.364;2022-08-03T15:38:14;8.37;;;3.13;;
69594;SDS011;56800;52.142;5.364;2022-08-03T15:40:41;7.43;;;3.30;;
69594;SDS011;56800;52.142;5.364;2022-08-03T15:43:08;5.65;;;3.08;;
69594;SDS011;56800;52.142;5.364;2022-08-03T15:45:35;8.90;;;2.85;;
69594;SDS011;56800;52.142;5.364;2022-08-03T15:48:03;9.38;;;3.97;;
69594;SDS011;56800;52.142;5.364;2022-08-03T15:50:30;8.27;;;3.33;;